sensor_id;sensor_type;location;lat;lon;timestamp;temperature;humidity
24800;DHT22;12897;50.812;4.430;2022-11-06T00:01:21;11.00;99.90
24800;DHT22;12897;50.812;4.430;2022-11-06T00:03:51;11.00;99.90
24800;DHT22;12897;50.812;4.430;2022-11-06T00:06:24;11.20;99.90
24800;DHT22;12897;50.812;4.430;2022-11-06T00:09:09;11.40;99.90
24800;DHT22;12897;50.812;4.430;2022-11-06T00:11:40;11.40;99.90
24800;DHT22;12897;50.812;4.430;2022-11-06T00:14:11;11.50;99.90
24800;DHT22;12897;50.812;4.430;2022-11-06T00:16:40;11.70;99.90
24800;DHT22;12897;50.812;4.430;2022-11-06T00:19:14;11.80;99.90
24800;DHT22;12897;50.812;4.430;2022-11-06T00:21:45;11.90;99.90
24800;DHT22;12897;50.812;4.430;2022-11-06T00:24:14;11.80;99.90
24800;DHT22;12897;50.812;4.430;2022-11-06T00:26:58;11.70;99.90
24800;DHT22;12897;50.812;4.430;2022-11-06T00:29:14;11.80;99.90
24800;DHT22;12897;50.812;4.430;2022-11-06T00:31:47;11.70;99.90
24800;DHT22;12897;50.812;4.430;2022-11-06T00:34:17;11.70;99.90
24800;DHT22;12897;50.812;4.430;2022-11-06T00:36:53;11.70;99.90
24800;DHT22;12897;50.812;4.430;2022-11-06T00:39:19;11.70;99.90
24800;DHT22;12897;50.812;4.430;2022-11-06T00:41:48;11.70;99.90
24800;DHT22;12897;50.812;4.430;2022-11-06T00:44:20;11.80;99.90
24800;DHT22;12897;50.812;4.430;2022-11-06T00:46:47;11.80;99.90
24800;DHT22;12897;50.812;4.430;2022-11-06T00:49:14;11.70;99.90
24800;DHT22;12897;50.812;4.430;2022-11-06T00:51:44;11.80;99.90
24800;DHT22;12897;50.812;4.430;2022-11-06T00:54:15;11.70;99.90
24800;DHT22;12897;50.812;4.430;2022-11-06T00:56:58;11.70;99.90
24800;DHT22;12897;50.812;4.430;2022-11-06T00:59:25;11.50;99.90
24800;DHT22;12897;50.812;4.430;2022-11-06T01:02:06;11.70;99.90
24800;DHT22;12897;50.812;4.430;2022-11-06T01:04:25;11.80;99.90
24800;DHT22;12897;50.812;4.430;2022-11-06T01:06:54;11.90;99.90
24800;DHT22;12897;50.812;4.430;2022-11-06T01:09:28;11.80;99.90
24800;DHT22;12897;50.812;4.430;2022-11-06T01:12:03;11.70;99.90
24800;DHT22;12897;50.812;4.430;2022-11-06T01:14:38;11.70;99.90
24800;DHT22;12897;50.812;4.430;2022-11-06T01:17:09;11.50;99.90
24800;DHT22;12897;50.812;4.430;2022-11-06T01:19:36;11.70;99.90
24800;DHT22;12897;50.812;4.430;2022-11-06T01:22:05;11.80;99.90
24800;DHT22;12897;50.812;4.430;2022-11-06T01:24:36;11.90;99.90
24800;DHT22;12897;50.812;4.430;2022-11-06T01:27:05;11.90;99.90
24800;DHT22;12897;50.812;4.430;2022-11-06T01:29:36;11.70;99.90
24800;DHT22;12897;50.812;4.430;2022-11-06T01:32:09;11.80;99.90
24800;DHT22;12897;50.812;4.430;2022-11-06T01:34:47;11.70;99.90
24800;DHT22;12897;50.812;4.430;2022-11-06T01:37:14;11.90;99.90
24800;DHT22;12897;50.812;4.430;2022-11-06T01:39:47;11.70;99.90
24800;DHT22;12897;50.812;4.430;2022-11-06T01:42:19;11.70;99.90
24800;DHT22;12897;50.812;4.430;2022-11-06T01:47:47;11.80;99.90
24800;DHT22;12897;50.812;4.430;2022-11-06T01:50:25;11.80;99.90
24800;DHT22;12897;50.812;4.430;2022-11-06T01:52:50;11.90;99.90
24800;DHT22;12897;50.812;4.430;2022-11-06T01:55:25;11.90;99.90
24800;DHT22;12897;50.812;4.430;2022-11-06T01:57:57;11.80;99.90
24800;DHT22;12897;50.812;4.430;2022-11-06T02:00:26;11.70;99.90
24800;DHT22;12897;50.812;4.430;2022-11-06T02:02:59;11.60;99.90
24800;DHT22;12897;50.812;4.430;2022-11-06T02:05:33;11.50;99.90
24800;DHT22;12897;50.812;4.430;2022-11-06T02:08:08;11.50;99.90
24800;DHT22;12897;50.812;4.430;2022-11-06T02:10:47;11.50;99.90
24800;DHT22;12897;50.812;4.430;2022-11-06T02:16:33;11.50;99.90
24800;DHT22;12897;50.812;4.430;2022-11-06T02:27:50;11.50;99.90
24800;DHT22;12897;50.812;4.430;2022-11-06T02:30:25;11.60;99.90
24800;DHT22;12897;50.812;4.430;2022-11-06T02:33:05;11.60;99.90
24800;DHT22;12897;50.812;4.430;2022-11-06T02:35:34;11.50;99.90
24800;DHT22;12897;50.812;4.430;2022-11-06T02:38:33;11.50;99.90
24800;DHT22;12897;50.812;4.430;2022-11-06T02:41:02;11.60;99.90
24800;DHT22;12897;50.812;4.430;2022-11-06T02:43:44;11.60;99.90
24800;DHT22;12897;50.812;4.430;2022-11-06T02:46:17;11.50;99.90
24800;DHT22;12897;50.812;4.430;2022-11-06T02:48:49;11.70;99.90
24800;DHT22;12897;50.812;4.430;2022-11-06T02:51:20;11.70;99.90
24800;DHT22;12897;50.812;4.430;2022-11-06T02:53:49;11.60;99.90
24800;DHT22;12897;50.812;4.430;2022-11-06T02:56:19;11.40;99.90
24800;DHT22;12897;50.812;4.430;2022-11-06T03:01:39;11.50;99.90
24800;DHT22;12897;50.812;4.430;2022-11-06T03:03:59;11.30;99.90
24800;DHT22;12897;50.812;4.430;2022-11-06T03:06:43;11.30;99.90
24800;DHT22;12897;50.812;4.430;2022-11-06T03:09:20;11.50;99.90
24800;DHT22;12897;50.812;4.430;2022-11-06T03:12:08;11.70;99.90
24800;DHT22;12897;50.812;4.430;2022-11-06T03:14:39;11.60;99.90
24800;DHT22;12897;50.812;4.430;2022-11-06T03:17:30;11.70;99.90
24800;DHT22;12897;50.812;4.430;2022-11-06T03:23:02;11.70;99.90
24800;DHT22;12897;50.812;4.430;2022-11-06T03:31:47;11.70;99.90
24800;DHT22;12897;50.812;4.430;2022-11-06T03:34:08;11.60;99.90
24800;DHT22;12897;50.812;4.430;2022-11-06T03:36:35;11.70;99.90
24800;DHT22;12897;50.812;4.430;2022-11-06T03:39:18;11.70;99.90
24800;DHT22;12897;50.812;4.430;2022-11-06T03:41:58;11.60;99.90
24800;DHT22;12897;50.812;4.430;2022-11-06T03:44:34;11.70;99.90
24800;DHT22;12897;50.812;4.430;2022-11-06T03:47:15;11.70;99.90
24800;DHT22;12897;50.812;4.430;2022-11-06T03:49:49;11.80;99.90
24800;DHT22;12897;50.812;4.430;2022-11-06T03:52:21;11.80;99.90
24800;DHT22;12897;50.812;4.430;2022-11-06T03:55:08;11.80;99.90
24800;DHT22;12897;50.812;4.430;2022-11-06T03:57:45;11.70;99.90
24800;DHT22;12897;50.812;4.430;2022-11-06T04:00:12;11.60;99.90
24800;DHT22;12897;50.812;4.430;2022-11-06T04:02:57;11.60;99.90
24800;DHT22;12897;50.812;4.430;2022-11-06T04:05:19;11.60;99.90
24800;DHT22;12897;50.812;4.430;2022-11-06T04:07:50;11.60;99.90
24800;DHT22;12897;50.812;4.430;2022-11-06T04:10:39;11.60;99.90
24800;DHT22;12897;50.812;4.430;2022-11-06T04:13:26;11.50;99.90
24800;DHT22;12897;50.812;4.430;2022-11-06T04:16:13;11.60;99.90
24800;DHT22;12897;50.812;4.430;2022-11-06T04:18:44;11.40;99.90
24800;DHT22;12897;50.812;4.430;2022-11-06T04:21:36;11.30;99.90
24800;DHT22;12897;50.812;4.430;2022-11-06T04:30:13;11.30;99.90
24800;DHT22;12897;50.812;4.430;2022-11-06T04:38:23;11.20;99.90
24800;DHT22;12897;50.812;4.430;2022-11-06T04:43:59;10.90;99.90
24800;DHT22;12897;50.812;4.430;2022-11-06T04:46:38;10.90;99.90
24800;DHT22;12897;50.812;4.430;2022-11-06T04:49:09;11.00;99.90
24800;DHT22;12897;50.812;4.430;2022-11-06T04:51:39;11.10;99.90
24800;DHT22;12897;50.812;4.430;2022-11-06T04:54:09;11.10;99.90
24800;DHT22;12897;50.812;4.430;2022-11-06T04:56:38;11.10;99.90
24800;DHT22;12897;50.812;4.430;2022-11-06T04:59:16;11.10;99.90
24800;DHT22;12897;50.812;4.430;2022-11-06T05:01:54;11.00;99.90
24800;DHT22;12897;50.812;4.430;2022-11-06T05:04:31;11.10;99.90
24800;DHT22;12897;50.812;4.430;2022-11-06T05:07:04;11.10;99.90
24800;DHT22;12897;50.812;4.430;2022-11-06T05:09:42;11.00;99.90
24800;DHT22;12897;50.812;4.430;2022-11-06T05:12:17;11.00;99.90
24800;DHT22;12897;50.812;4.430;2022-11-06T05:14:44;11.10;99.90
24800;DHT22;12897;50.812;4.430;2022-11-06T05:17:13;11.10;99.90
24800;DHT22;12897;50.812;4.430;2022-11-06T05:19:44;11.20;99.90
24800;DHT22;12897;50.812;4.430;2022-11-06T05:22:13;11.30;99.90
24800;DHT22;12897;50.812;4.430;2022-11-06T05:25:01;11.40;99.90
24800;DHT22;12897;50.812;4.430;2022-11-06T05:27:34;11.30;99.90
24800;DHT22;12897;50.812;4.430;2022-11-06T05:30:04;11.30;99.90
24800;DHT22;12897;50.812;4.430;2022-11-06T05:32:37;11.30;99.90
24800;DHT22;12897;50.812;4.430;2022-11-06T05:35:09;11.30;99.90
24800;DHT22;12897;50.812;4.430;2022-11-06T05:37:40;11.30;99.90
24800;DHT22;12897;50.812;4.430;2022-11-06T05:40:08;11.40;99.90
24800;DHT22;12897;50.812;4.430;2022-11-06T05:42:39;11.40;99.90
24800;DHT22;12897;50.812;4.430;2022-11-06T05:45:16;11.40;99.90
24800;DHT22;12897;50.812;4.430;2022-11-06T05:47:40;11.50;99.90
24800;DHT22;12897;50.812;4.430;2022-11-06T05:50:10;11.60;99.90
24800;DHT22;12897;50.812;4.430;2022-11-06T05:52:37;11.70;99.90
24800;DHT22;12897;50.812;4.430;2022-11-06T05:55:08;11.60;99.90
24800;DHT22;12897;50.812;4.430;2022-11-06T05:57:37;11.70;99.90
24800;DHT22;12897;50.812;4.430;2022-11-06T06:00:09;11.60;99.90
24800;DHT22;12897;50.812;4.430;2022-11-06T06:02:39;11.60;99.90
24800;DHT22;12897;50.812;4.430;2022-11-06T06:05:06;11.80;99.90
24800;DHT22;12897;50.812;4.430;2022-11-06T06:07:42;11.80;99.90
24800;DHT22;12897;50.812;4.430;2022-11-06T06:10:16;11.70;99.90
24800;DHT22;12897;50.812;4.430;2022-11-06T06:12:51;11.70;99.90
24800;DHT22;12897;50.812;4.430;2022-11-06T06:15:25;11.70;99.90
24800;DHT22;12897;50.812;4.430;2022-11-06T06:17:57;11.70;99.90
24800;DHT22;12897;50.812;4.430;2022-11-06T06:20:25;11.80;99.90
24800;DHT22;12897;50.812;4.430;2022-11-06T06:22:53;11.90;99.90
24800;DHT22;12897;50.812;4.430;2022-11-06T06:25:26;11.90;99.90
24800;DHT22;12897;50.812;4.430;2022-11-06T06:27:57;11.90;99.90
24800;DHT22;12897;50.812;4.430;2022-11-06T06:30:23;11.80;99.90
24800;DHT22;12897;50.812;4.430;2022-11-06T06:32:52;11.70;99.90
24800;DHT22;12897;50.812;4.430;2022-11-06T06:35:26;11.70;99.90
24800;DHT22;12897;50.812;4.430;2022-11-06T06:37:54;11.80;99.90
24800;DHT22;12897;50.812;4.430;2022-11-06T06:40:22;12.00;99.90
24800;DHT22;12897;50.812;4.430;2022-11-06T06:42:56;11.90;99.90
24800;DHT22;12897;50.812;4.430;2022-11-06T06:45:24;12.00;99.90
24800;DHT22;12897;50.812;4.430;2022-11-06T06:47:54;11.90;99.90
24800;DHT22;12897;50.812;4.430;2022-11-06T06:50:24;12.00;99.90
24800;DHT22;12897;50.812;4.430;2022-11-06T06:52:58;12.10;99.90
24800;DHT22;12897;50.812;4.430;2022-11-06T06:55:29;12.10;99.90
24800;DHT22;12897;50.812;4.430;2022-11-06T06:57:59;12.10;99.90
24800;DHT22;12897;50.812;4.430;2022-11-06T07:00:33;12.20;99.90
24800;DHT22;12897;50.812;4.430;2022-11-06T07:03:01;12.10;99.90
24800;DHT22;12897;50.812;4.430;2022-11-06T07:05:36;12.10;99.90
24800;DHT22;12897;50.812;4.430;2022-11-06T07:08:04;12.10;99.90
24800;DHT22;12897;50.812;4.430;2022-11-06T07:10:33;12.20;99.90
24800;DHT22;12897;50.812;4.430;2022-11-06T07:13:02;12.00;99.90
24800;DHT22;12897;50.812;4.430;2022-11-06T07:15:37;12.10;99.90
24800;DHT22;12897;50.812;4.430;2022-11-06T07:18:11;12.10;99.90
24800;DHT22;12897;50.812;4.430;2022-11-06T07:20:44;12.20;99.90
24800;DHT22;12897;50.812;4.430;2022-11-06T07:23:17;12.20;99.90
24800;DHT22;12897;50.812;4.430;2022-11-06T07:25:50;12.10;99.90
24800;DHT22;12897;50.812;4.430;2022-11-06T07:28:21;12.10;99.90
24800;DHT22;12897;50.812;4.430;2022-11-06T07:30:49;12.30;99.90
24800;DHT22;12897;50.812;4.430;2022-11-06T07:33:18;12.30;99.90
24800;DHT22;12897;50.812;4.430;2022-11-06T07:35:46;12.30;99.90
24800;DHT22;12897;50.812;4.430;2022-11-06T07:38:17;12.20;99.90
24800;DHT22;12897;50.812;4.430;2022-11-06T07:40:47;12.20;99.90
24800;DHT22;12897;50.812;4.430;2022-11-06T07:43:16;12.20;99.90
24800;DHT22;12897;50.812;4.430;2022-11-06T07:45:50;12.50;99.90
24800;DHT22;12897;50.812;4.430;2022-11-06T07:48:18;12.40;99.90
24800;DHT22;12897;50.812;4.430;2022-11-06T07:50:47;12.50;99.90
24800;DHT22;12897;50.812;4.430;2022-11-06T07:53:17;12.60;99.90
24800;DHT22;12897;50.812;4.430;2022-11-06T07:55:52;12.60;99.90
24800;DHT22;12897;50.812;4.430;2022-11-06T07:58:19;12.60;99.90
24800;DHT22;12897;50.812;4.430;2022-11-06T08:00:47;12.50;99.90
24800;DHT22;12897;50.812;4.430;2022-11-06T08:03:19;12.70;99.90
24800;DHT22;12897;50.812;4.430;2022-11-06T08:05:54;12.50;99.90
24800;DHT22;12897;50.812;4.430;2022-11-06T08:08:26;12.60;99.90
24800;DHT22;12897;50.812;4.430;2022-11-06T08:10:51;12.60;99.90
24800;DHT22;12897;50.812;4.430;2022-11-06T08:13:21;12.50;99.90
24800;DHT22;12897;50.812;4.430;2022-11-06T08:15:53;12.50;99.90
24800;DHT22;12897;50.812;4.430;2022-11-06T08:18:24;12.60;99.90
24800;DHT22;12897;50.812;4.430;2022-11-06T08:20:51;12.60;99.90
24800;DHT22;12897;50.812;4.430;2022-11-06T08:23:19;12.60;99.90
24800;DHT22;12897;50.812;4.430;2022-11-06T08:25:47;12.60;99.90
24800;DHT22;12897;50.812;4.430;2022-11-06T08:28:18;12.60;99.90
24800;DHT22;12897;50.812;4.430;2022-11-06T08:30:49;12.80;99.90
24800;DHT22;12897;50.812;4.430;2022-11-06T08:33:16;12.70;99.90
24800;DHT22;12897;50.812;4.430;2022-11-06T08:35:53;12.60;99.90
24800;DHT22;12897;50.812;4.430;2022-11-06T08:38:18;12.50;99.90
24800;DHT22;12897;50.812;4.430;2022-11-06T08:40:54;12.70;99.90
24800;DHT22;12897;50.812;4.430;2022-11-06T08:43:18;12.60;99.90
24800;DHT22;12897;50.812;4.430;2022-11-06T08:45:50;12.50;99.90
24800;DHT22;12897;50.812;4.430;2022-11-06T08:48:16;12.60;99.90
24800;DHT22;12897;50.812;4.430;2022-11-06T08:50:45;12.70;99.90
24800;DHT22;12897;50.812;4.430;2022-11-06T08:53:13;12.60;99.90
24800;DHT22;12897;50.812;4.430;2022-11-06T08:55:43;12.60;99.90
24800;DHT22;12897;50.812;4.430;2022-11-06T08:58:14;12.60;99.90
24800;DHT22;12897;50.812;4.430;2022-11-06T09:00:44;12.70;99.90
24800;DHT22;12897;50.812;4.430;2022-11-06T09:03:13;12.70;99.90
24800;DHT22;12897;50.812;4.430;2022-11-06T09:05:43;12.70;99.90
24800;DHT22;12897;50.812;4.430;2022-11-06T09:08:16;12.60;99.90
24800;DHT22;12897;50.812;4.430;2022-11-06T09:10:49;12.70;99.90
24800;DHT22;12897;50.812;4.430;2022-11-06T09:13:14;12.90;99.90
24800;DHT22;12897;50.812;4.430;2022-11-06T09:15:48;13.00;99.90
24800;DHT22;12897;50.812;4.430;2022-11-06T09:18:20;13.10;99.90
24800;DHT22;12897;50.812;4.430;2022-11-06T09:20:46;13.10;99.90
24800;DHT22;12897;50.812;4.430;2022-11-06T09:23:16;13.00;99.90
24800;DHT22;12897;50.812;4.430;2022-11-06T09:25:48;13.00;99.90
24800;DHT22;12897;50.812;4.430;2022-11-06T09:28:18;12.90;99.90
24800;DHT22;12897;50.812;4.430;2022-11-06T09:30:45;12.70;99.90
24800;DHT22;12897;50.812;4.430;2022-11-06T09:33:19;12.60;99.90
24800;DHT22;12897;50.812;4.430;2022-11-06T09:35:52;12.60;99.90
24800;DHT22;12897;50.812;4.430;2022-11-06T09:38:24;12.60;99.90
24800;DHT22;12897;50.812;4.430;2022-11-06T09:40:57;12.60;99.90
24800;DHT22;12897;50.812;4.430;2022-11-06T09:46:21;13.10;99.90
24800;DHT22;12897;50.812;4.430;2022-11-06T09:48:44;12.80;99.90
24800;DHT22;12897;50.812;4.430;2022-11-06T09:51:32;12.80;99.90
24800;DHT22;12897;50.812;4.430;2022-11-06T09:54:27;13.10;99.90
24800;DHT22;12897;50.812;4.430;2022-11-06T09:57:02;13.20;99.90
24800;DHT22;12897;50.812;4.430;2022-11-06T09:59:34;13.20;99.90
24800;DHT22;12897;50.812;4.430;2022-11-06T10:02:26;13.20;99.90
24800;DHT22;12897;50.812;4.430;2022-11-06T10:07:39;13.10;99.90
24800;DHT22;12897;50.812;4.430;2022-11-06T10:10:18;13.10;99.90
24800;DHT22;12897;50.812;4.430;2022-11-06T10:15:21;13.20;99.90
24800;DHT22;12897;50.812;4.430;2022-11-06T10:20:42;13.10;99.90
24800;DHT22;12897;50.812;4.430;2022-11-06T10:23:29;13.10;99.90
24800;DHT22;12897;50.812;4.430;2022-11-06T10:26:04;12.90;99.90
24800;DHT22;12897;50.812;4.430;2022-11-06T10:32:40;12.70;99.90
24800;DHT22;12897;50.812;4.430;2022-11-06T10:34:14;12.70;99.90
24800;DHT22;12897;50.812;4.430;2022-11-06T10:36:50;12.80;99.90
24800;DHT22;12897;50.812;4.430;2022-11-06T10:39:33;12.70;99.90
24800;DHT22;12897;50.812;4.430;2022-11-06T10:44:43;12.70;99.90
24800;DHT22;12897;50.812;4.430;2022-11-06T10:47:17;12.80;99.90
24800;DHT22;12897;50.812;4.430;2022-11-06T10:49:53;12.90;99.90
24800;DHT22;12897;50.812;4.430;2022-11-06T10:52:47;13.10;99.90
24800;DHT22;12897;50.812;4.430;2022-11-06T11:00:46;13.20;99.90
24800;DHT22;12897;50.812;4.430;2022-11-06T11:03:21;13.20;99.90
24800;DHT22;12897;50.812;4.430;2022-11-06T11:05:52;13.40;99.90
24800;DHT22;12897;50.812;4.430;2022-11-06T11:08:35;13.60;99.90
24800;DHT22;12897;50.812;4.430;2022-11-06T11:13:44;13.80;99.90
24800;DHT22;12897;50.812;4.430;2022-11-06T11:16:22;13.70;99.90
24800;DHT22;12897;50.812;4.430;2022-11-06T11:18:49;13.70;99.90
24800;DHT22;12897;50.812;4.430;2022-11-06T11:21:24;13.70;99.90
24800;DHT22;12897;50.812;4.430;2022-11-06T11:24:04;13.50;99.90
24800;DHT22;12897;50.812;4.430;2022-11-06T11:26:45;13.30;99.90
24800;DHT22;12897;50.812;4.430;2022-11-06T11:29:24;13.40;99.90
24800;DHT22;12897;50.812;4.430;2022-11-06T11:32:21;13.40;99.90
24800;DHT22;12897;50.812;4.430;2022-11-06T11:34:41;13.40;99.90
24800;DHT22;12897;50.812;4.430;2022-11-06T11:37:19;13.30;99.90
24800;DHT22;12897;50.812;4.430;2022-11-06T11:39:42;13.20;99.90
24800;DHT22;12897;50.812;4.430;2022-11-06T11:42:30;13.20;99.90
24800;DHT22;12897;50.812;4.430;2022-11-06T11:47:42;12.90;99.90
24800;DHT22;12897;50.812;4.430;2022-11-06T11:50:27;12.80;99.90
24800;DHT22;12897;50.812;4.430;2022-11-06T11:53:10;12.80;99.90
24800;DHT22;12897;50.812;4.430;2022-11-06T11:55:41;12.80;99.90
24800;DHT22;12897;50.812;4.430;2022-11-06T11:58:24;12.80;99.90
24800;DHT22;12897;50.812;4.430;2022-11-06T12:01:00;12.90;99.90
24800;DHT22;12897;50.812;4.430;2022-11-06T12:03:31;12.90;99.90
24800;DHT22;12897;50.812;4.430;2022-11-06T12:06:08;12.90;99.90
24800;DHT22;12897;50.812;4.430;2022-11-06T12:08:38;12.70;99.90
24800;DHT22;12897;50.812;4.430;2022-11-06T12:16:52;12.50;99.90
24800;DHT22;12897;50.812;4.430;2022-11-06T12:19:21;12.50;99.90
24800;DHT22;12897;50.812;4.430;2022-11-06T12:21:57;12.40;99.90
24800;DHT22;12897;50.812;4.430;2022-11-06T12:25:14;12.30;99.90
24800;DHT22;12897;50.812;4.430;2022-11-06T12:27:12;12.40;99.90
24800;DHT22;12897;50.812;4.430;2022-11-06T12:29:54;12.30;99.90
24800;DHT22;12897;50.812;4.430;2022-11-06T12:38:11;12.20;99.90
24800;DHT22;12897;50.812;4.430;2022-11-06T12:40:49;12.20;99.90
24800;DHT22;12897;50.812;4.430;2022-11-06T12:43:26;12.20;99.90
24800;DHT22;12897;50.812;4.430;2022-11-06T12:48:49;12.20;99.90
24800;DHT22;12897;50.812;4.430;2022-11-06T13:00:03;12.40;99.90
24800;DHT22;12897;50.812;4.430;2022-11-06T13:05:15;12.40;99.90
24800;DHT22;12897;50.812;4.430;2022-11-06T13:08:02;12.10;99.90
24800;DHT22;12897;50.812;4.430;2022-11-06T13:10:32;12.10;99.90
24800;DHT22;12897;50.812;4.430;2022-11-06T13:13:12;12.10;99.90
24800;DHT22;12897;50.812;4.430;2022-11-06T13:15:44;12.10;99.90
24800;DHT22;12897;50.812;4.430;2022-11-06T13:18:22;12.10;99.90
24800;DHT22;12897;50.812;4.430;2022-11-06T13:23:39;11.90;99.90
24800;DHT22;12897;50.812;4.430;2022-11-06T13:26:22;11.70;99.90
24800;DHT22;12897;50.812;4.430;2022-11-06T13:28:51;11.60;99.90
24800;DHT22;12897;50.812;4.430;2022-11-06T13:31:28;11.30;99.90
24800;DHT22;12897;50.812;4.430;2022-11-06T13:33:57;11.50;99.90
24800;DHT22;12897;50.812;4.430;2022-11-06T13:36:30;11.40;99.90
24800;DHT22;12897;50.812;4.430;2022-11-06T13:41:38;11.50;99.90
24800;DHT22;12897;50.812;4.430;2022-11-06T13:44:08;11.40;99.90
24800;DHT22;12897;50.812;4.430;2022-11-06T13:46:47;11.40;99.90
24800;DHT22;12897;50.812;4.430;2022-11-06T13:50:21;11.40;99.90
24800;DHT22;12897;50.812;4.430;2022-11-06T13:54:55;11.40;99.90
24800;DHT22;12897;50.812;4.430;2022-11-06T13:57:29;11.20;99.90
24800;DHT22;12897;50.812;4.430;2022-11-06T14:00:19;11.10;99.90
24800;DHT22;12897;50.812;4.430;2022-11-06T14:05:45;10.90;99.90
24800;DHT22;12897;50.812;4.430;2022-11-06T14:08:29;10.90;99.90
24800;DHT22;12897;50.812;4.430;2022-11-06T14:11:05;10.80;99.90
24800;DHT22;12897;50.812;4.430;2022-11-06T14:13:34;10.80;99.90
24800;DHT22;12897;50.812;4.430;2022-11-06T14:18:52;10.80;99.90
24800;DHT22;12897;50.812;4.430;2022-11-06T14:21:42;10.70;99.90
24800;DHT22;12897;50.812;4.430;2022-11-06T14:24:30;10.80;99.90
24800;DHT22;12897;50.812;4.430;2022-11-06T14:26:54;10.80;99.90
24800;DHT22;12897;50.812;4.430;2022-11-06T14:34:47;10.60;99.90
24800;DHT22;12897;50.812;4.430;2022-11-06T14:42:34;10.60;99.90
24800;DHT22;12897;50.812;4.430;2022-11-06T14:45:08;10.70;99.90
24800;DHT22;12897;50.812;4.430;2022-11-06T14:47:51;10.60;99.90
24800;DHT22;12897;50.812;4.430;2022-11-06T14:50:52;10.60;99.90
24800;DHT22;12897;50.812;4.430;2022-11-06T14:53:14;10.50;99.90
24800;DHT22;12897;50.812;4.430;2022-11-06T14:55:45;10.40;99.90
24800;DHT22;12897;50.812;4.430;2022-11-06T14:58:11;10.40;99.90
24800;DHT22;12897;50.812;4.430;2022-11-06T15:06:04;9.90;99.90
24800;DHT22;12897;50.812;4.430;2022-11-06T15:08:51;9.90;99.90
24800;DHT22;12897;50.812;4.430;2022-11-06T15:19:27;10.00;99.90
24800;DHT22;12897;50.812;4.430;2022-11-06T15:22:14;9.90;99.90
24800;DHT22;12897;50.812;4.430;2022-11-06T15:24:57;9.80;99.90
24800;DHT22;12897;50.812;4.430;2022-11-06T15:27:32;9.80;99.90
24800;DHT22;12897;50.812;4.430;2022-11-06T15:30:02;9.80;99.90
24800;DHT22;12897;50.812;4.430;2022-11-06T15:32:31;9.70;99.90
24800;DHT22;12897;50.812;4.430;2022-11-06T15:37:51;9.60;99.90
24800;DHT22;12897;50.812;4.430;2022-11-06T15:40:32;9.70;99.90
24800;DHT22;12897;50.812;4.430;2022-11-06T15:43:06;9.60;99.90
24800;DHT22;12897;50.812;4.430;2022-11-06T15:45:34;9.60;99.90
24800;DHT22;12897;50.812;4.430;2022-11-06T15:48:04;9.60;99.90
24800;DHT22;12897;50.812;4.430;2022-11-06T15:50:36;9.60;99.90
24800;DHT22;12897;50.812;4.430;2022-11-06T15:55:47;9.70;99.90
24800;DHT22;12897;50.812;4.430;2022-11-06T16:00:49;9.80;99.90
24800;DHT22;12897;50.812;4.430;2022-11-06T16:03:24;9.80;99.90
24800;DHT22;12897;50.812;4.430;2022-11-06T16:05:48;9.90;99.90
24800;DHT22;12897;50.812;4.430;2022-11-06T16:08:18;9.80;99.90
24800;DHT22;12897;50.812;4.430;2022-11-06T16:10:49;9.80;99.90
24800;DHT22;12897;50.812;4.430;2022-11-06T16:13:22;9.80;99.90
24800;DHT22;12897;50.812;4.430;2022-11-06T16:15:56;9.90;99.90
24800;DHT22;12897;50.812;4.430;2022-11-06T16:18:43;9.90;99.90
24800;DHT22;12897;50.812;4.430;2022-11-06T16:23:52;9.90;99.90
24800;DHT22;12897;50.812;4.430;2022-11-06T16:26:38;9.90;99.90
24800;DHT22;12897;50.812;4.430;2022-11-06T16:29:14;10.00;99.90
24800;DHT22;12897;50.812;4.430;2022-11-06T16:31:30;10.00;99.90
24800;DHT22;12897;50.812;4.430;2022-11-06T16:34:00;9.90;99.90
24800;DHT22;12897;50.812;4.430;2022-11-06T16:36:29;9.80;99.90
24800;DHT22;12897;50.812;4.430;2022-11-06T16:42:15;10.00;99.90
24800;DHT22;12897;50.812;4.430;2022-11-06T16:47:14;10.10;99.90
24800;DHT22;12897;50.812;4.430;2022-11-06T16:49:47;10.00;99.90
24800;DHT22;12897;50.812;4.430;2022-11-06T16:57:40;9.80;99.90
24800;DHT22;12897;50.812;4.430;2022-11-06T17:02:54;10.20;99.90
24800;DHT22;12897;50.812;4.430;2022-11-06T17:05:23;10.30;99.90
24800;DHT22;12897;50.812;4.430;2022-11-06T17:10:41;10.40;99.90
24800;DHT22;12897;50.812;4.430;2022-11-06T17:13:21;10.20;99.90
24800;DHT22;12897;50.812;4.430;2022-11-06T17:15:51;10.20;99.90
24800;DHT22;12897;50.812;4.430;2022-11-06T17:18:25;10.20;99.90
24800;DHT22;12897;50.812;4.430;2022-11-06T17:20:58;10.20;99.90
24800;DHT22;12897;50.812;4.430;2022-11-06T17:23:29;10.20;99.90
24800;DHT22;12897;50.812;4.430;2022-11-06T17:28:41;10.40;99.90
24800;DHT22;12897;50.812;4.430;2022-11-06T17:31:14;10.40;99.90
24800;DHT22;12897;50.812;4.430;2022-11-06T17:33:44;10.40;99.90
24800;DHT22;12897;50.812;4.430;2022-11-06T17:36:27;10.40;99.90
24800;DHT22;12897;50.812;4.430;2022-11-06T17:38:57;10.30;99.90
24800;DHT22;12897;50.812;4.430;2022-11-06T17:41:25;10.40;99.90
24800;DHT22;12897;50.812;4.430;2022-11-06T17:44:09;10.60;99.90
24800;DHT22;12897;50.812;4.430;2022-11-06T17:46:43;10.70;99.90
24800;DHT22;12897;50.812;4.430;2022-11-06T17:49:12;10.80;99.90
24800;DHT22;12897;50.812;4.430;2022-11-06T17:51:40;10.70;99.90
24800;DHT22;12897;50.812;4.430;2022-11-06T17:54:23;10.70;99.90
24800;DHT22;12897;50.812;4.430;2022-11-06T17:57:01;10.60;99.90
24800;DHT22;12897;50.812;4.430;2022-11-06T17:59:29;10.70;99.90
24800;DHT22;12897;50.812;4.430;2022-11-06T18:01:57;10.90;99.90
24800;DHT22;12897;50.812;4.430;2022-11-06T18:04:29;10.80;99.90
24800;DHT22;12897;50.812;4.430;2022-11-06T18:07:02;10.90;99.90
24800;DHT22;12897;50.812;4.430;2022-11-06T18:09:30;11.00;99.90
24800;DHT22;12897;50.812;4.430;2022-11-06T18:12:04;10.90;99.90
24800;DHT22;12897;50.812;4.430;2022-11-06T18:14:32;10.80;99.90
24800;DHT22;12897;50.812;4.430;2022-11-06T18:17:01;10.80;99.90
24800;DHT22;12897;50.812;4.430;2022-11-06T18:19:34;11.00;99.90
24800;DHT22;12897;50.812;4.430;2022-11-06T18:22:02;11.10;99.90
24800;DHT22;12897;50.812;4.430;2022-11-06T18:24:30;11.00;99.90
24800;DHT22;12897;50.812;4.430;2022-11-06T18:26:57;10.90;99.90
24800;DHT22;12897;50.812;4.430;2022-11-06T18:29:25;10.80;99.90
24800;DHT22;12897;50.812;4.430;2022-11-06T18:31:53;10.90;99.90
24800;DHT22;12897;50.812;4.430;2022-11-06T18:34:20;10.90;99.90
24800;DHT22;12897;50.812;4.430;2022-11-06T18:36:49;10.90;99.90
24800;DHT22;12897;50.812;4.430;2022-11-06T18:39:17;10.90;99.90
24800;DHT22;12897;50.812;4.430;2022-11-06T18:41:45;10.90;99.90
24800;DHT22;12897;50.812;4.430;2022-11-06T18:44:16;11.00;99.90
24800;DHT22;12897;50.812;4.430;2022-11-06T18:46:44;11.10;99.90
24800;DHT22;12897;50.812;4.430;2022-11-06T18:49:12;11.00;99.90
24800;DHT22;12897;50.812;4.430;2022-11-06T18:51:40;11.10;99.90